createdAt,value
2016-05-23T14:21:46.101Z,1006.15
2016-05-23T14:22:45.886Z,1006.14
2016-05-23T14:23:46.076Z,1006.18
2016-05-23T14:24:46.078Z,1006.2
2016-05-23T14:25:46.066Z,1006.13
2016-05-23T14:26:46.053Z,1006.16
2016-05-23T14:27:45.836Z,1006.1
2016-05-23T14:28:46.027Z,1006.12
2016-05-23T14:29:46.077Z,1006.08
2016-05-23T14:30:45.814Z,1006.01
2016-05-23T14:31:45.800Z,1005.98
2016-05-23T14:32:46.006Z,1006.01
2016-05-23T14:33:45.993Z,1006
2016-05-23T14:34:45.794Z,1006.04
2016-05-23T14:35:45.983Z,1006
2016-05-23T14:36:45.971Z,1005.96
2016-05-23T14:37:45.973Z,1005.99
2016-05-23T14:38:45.772Z,1005.94
2016-05-23T14:39:45.963Z,1005.99
2016-05-23T14:40:45.763Z,1005.93
2016-05-23T14:41:45.952Z,1005.94
2016-05-23T14:42:45.752Z,1005.95
2016-05-23T14:43:45.942Z,1005.94
2016-05-23T14:44:45.945Z,1005.93
2016-05-23T14:45:45.729Z,1005.96
2016-05-23T14:46:45.732Z,1005.95
2016-05-23T14:47:45.734Z,1005.95
2016-05-23T14:48:45.721Z,1005.96
2016-05-23T14:49:45.723Z,1005.95
2016-05-23T14:50:45.915Z,1006
2016-05-23T14:51:45.917Z,1005.94
2016-05-23T14:52:45.904Z,1005.96
2016-05-23T14:53:45.907Z,1005.92
2016-05-23T14:54:45.909Z,1005.93
2016-05-23T14:55:45.912Z,1005.89
2016-05-23T14:56:45.899Z,1005.95
2016-05-23T14:57:45.698Z,1005.95
2016-05-23T14:58:45.889Z,1006.01
2016-05-23T14:59:46.298Z,1005.97
2016-05-23T15:00:45.894Z,1005.96
2016-05-23T15:01:45.678Z,1005.94
2016-05-23T15:02:45.680Z,1005.99
2016-05-23T15:03:45.684Z,1005.97
2016-05-23T15:04:45.671Z,1005.96
2016-05-23T15:05:45.877Z,1006
2016-05-23T15:06:45.880Z,1006.01
2016-05-23T15:07:45.663Z,1005.98
2016-05-23T15:08:45.869Z,1005.97
2016-05-23T15:09:45.668Z,1005.98
2016-05-23T15:10:45.858Z,1006.02
2016-05-23T15:11:45.861Z,1006.06
2016-05-23T15:12:45.661Z,1006.1
2016-05-23T15:13:45.851Z,1006.05
2016-05-23T15:14:46.041Z,1006.06
2016-05-23T15:15:45.856Z,1006.05
2016-05-23T15:16:45.859Z,1006.02
2016-05-23T15:17:45.643Z,1006.04
2016-05-23T15:18:45.646Z,1006.02
2016-05-23T15:19:45.852Z,1006.02
2016-05-23T15:20:45.854Z,1005.99
2016-05-23T15:21:45.842Z,1006.06
2016-05-23T15:22:45.845Z,1006.05
2016-05-23T15:23:45.628Z,1006.05
2016-05-23T15:24:45.834Z,1006.04
2016-05-23T15:25:45.836Z,1006.05
2016-05-23T15:26:45.839Z,1006.07
2016-05-23T15:27:45.842Z,1006.06
2016-05-23T15:28:45.828Z,1006.03
2016-05-23T15:29:45.629Z,1006.06
2016-05-23T15:30:45.631Z,1006.05
2016-05-23T15:31:45.634Z,1006.05
2016-05-23T15:32:45.637Z,1006.06
2016-05-23T15:33:45.827Z,1006.06
2016-05-23T15:34:45.627Z,1006.07
2016-05-23T15:35:45.614Z,1006.07
2016-05-23T15:36:45.819Z,1006.06
2016-05-23T15:37:45.618Z,1006.02
2016-05-23T15:38:45.825Z,1006.03
2016-05-23T15:39:45.827Z,1006.04
2016-05-23T15:40:45.611Z,1006.02
2016-05-23T15:41:45.614Z,1006.01
2016-05-23T15:42:45.819Z,1006.03
2016-05-23T15:43:45.822Z,1006.04
2016-05-23T15:44:45.810Z,1006.05
2016-05-23T15:45:45.609Z,1006.06
2016-05-23T15:46:45.612Z,1006.04
2016-05-23T15:47:45.615Z,1006.02
2016-05-23T15:48:45.805Z,1006.02
2016-05-23T15:49:45.604Z,1006.07
2016-05-23T15:50:45.810Z,1006.07
2016-05-23T15:51:45.813Z,1006.07
2016-05-23T15:52:45.815Z,1006.09
2016-05-23T15:53:45.599Z,1006.07
2016-05-23T15:54:45.811Z,1006.1
2016-05-23T15:55:45.837Z,1006.13
2016-05-23T15:56:45.864Z,1006.08
2016-05-23T15:57:45.873Z,1006.11
2016-05-23T15:58:45.697Z,1006.08
2016-05-23T15:59:45.922Z,1006.11
2016-05-23T16:00:45.730Z,1006.15
2016-05-23T16:01:45.929Z,1006.17
2016-05-23T16:02:45.736Z,1006.15
2016-05-23T16:03:45.747Z,1006.17
2016-05-23T16:04:45.961Z,1006.17
2016-05-23T16:05:45.749Z,1006.18
2016-05-23T16:06:45.769Z,1006.17
2016-05-23T16:07:45.963Z,1006.17
2016-05-23T16:08:45.766Z,1006.16
2016-05-23T16:09:45.771Z,1006.17
2016-05-23T16:10:45.977Z,1006.2
2016-05-23T16:11:45.965Z,1006.18
2016-05-23T16:12:45.969Z,1006.16
2016-05-23T16:13:45.973Z,1006.14
2016-05-23T16:14:45.977Z,1006.19
2016-05-23T16:15:45.980Z,1006.17
2016-05-23T16:16:45.967Z,1006.18
2016-05-23T16:17:45.767Z,1006.2
2016-05-23T16:18:45.770Z,1006.2
2016-05-23T16:19:45.976Z,1006.21
2016-05-23T16:20:45.979Z,1006.23
2016-05-23T16:21:45.764Z,1006.24
2016-05-23T16:22:45.766Z,1006.25
2016-05-23T16:23:45.972Z,1006.24
2016-05-23T16:24:45.974Z,1006.25
2016-05-23T16:25:45.961Z,1006.2
2016-05-23T16:26:45.964Z,1006.22
2016-05-23T16:27:45.764Z,1006.25
2016-05-23T16:28:45.969Z,1006.22
2016-05-23T16:29:46.317Z,1006.24
2016-05-23T16:30:45.960Z,1006.23
2016-05-23T16:31:45.759Z,1006.24
2016-05-23T16:32:45.761Z,1006.23
2016-05-23T16:33:45.763Z,1006.28
2016-05-23T16:34:45.970Z,1006.3
2016-05-23T16:35:45.754Z,1006.32
2016-05-23T16:36:45.772Z,1006.33
2016-05-23T16:37:45.759Z,1006.33
2016-05-23T16:38:45.965Z,1006.34
2016-05-23T16:39:45.952Z,1006.4
2016-05-23T16:40:45.971Z,1006.41
2016-05-23T16:41:45.957Z,1006.43
2016-05-23T16:42:45.757Z,1006.45
2016-05-23T16:43:45.760Z,1006.45
2016-05-23T16:44:45.763Z,1006.5
2016-05-23T16:45:45.750Z,1006.51
2016-05-23T16:46:45.752Z,1006.55
2016-05-23T16:47:45.755Z,1006.61
2016-05-23T16:48:45.961Z,1006.57
2016-05-23T16:49:45.761Z,1006.63
2016-05-23T16:50:45.951Z,1006.67
2016-05-23T16:51:45.953Z,1006.7
2016-05-23T16:52:45.956Z,1006.71
2016-05-23T16:53:45.959Z,1006.73
2016-05-23T16:54:45.945Z,1006.77
2016-05-23T16:55:45.948Z,1006.76
2016-05-23T16:56:45.951Z,1006.76
2016-05-23T16:57:45.954Z,1006.75
2016-05-23T16:58:45.956Z,1006.81
2016-05-23T16:59:46.225Z,1006.8
2016-05-23T17:00:45.946Z,1006.81
2016-05-23T17:01:45.949Z,1006.82
2016-05-23T17:02:45.952Z,1006.83
2016-05-23T17:03:45.752Z,1006.88
2016-05-23T17:04:45.957Z,1006.85
2016-05-23T17:05:45.757Z,1006.91
2016-05-23T17:06:45.946Z,1006.88
2016-05-23T17:07:45.746Z,1006.87
2016-05-23T17:08:45.952Z,1006.94
2016-05-23T17:09:45.751Z,1006.95
2016-05-23T17:10:45.755Z,1006.95
2016-05-23T17:11:45.757Z,1006.98
2016-05-23T17:12:45.948Z,1006.95
2016-05-23T17:13:45.747Z,1006.98
2016-05-23T17:14:46.468Z,1006.96
2016-05-23T17:15:45.752Z,1006.98
2016-05-23T17:16:45.754Z,1007.01
2016-05-23T17:17:45.757Z,1006.99
2016-05-23T17:18:45.745Z,1007.03
2016-05-23T17:19:45.748Z,1007.01
2016-05-23T17:20:45.953Z,1007.03
2016-05-23T17:21:45.753Z,1007.07
2016-05-23T17:22:45.958Z,1007.09
2016-05-23T17:23:45.742Z,1007.13
2016-05-23T17:24:45.949Z,1007.15
2016-05-23T17:25:45.950Z,1007.2
2016-05-23T17:26:45.954Z,1007.2
2016-05-23T17:27:45.738Z,1007.23
2016-05-23T17:28:45.944Z,1007.29
2016-05-23T17:29:45.947Z,1007.27
2016-05-23T17:30:45.949Z,1007.34
2016-05-23T17:31:45.749Z,1007.35
2016-05-23T17:32:45.955Z,1007.34
2016-05-23T17:33:45.941Z,1007.34
2016-05-23T17:34:45.741Z,1007.32
2016-05-23T17:35:45.947Z,1007.34
2016-05-23T17:36:45.746Z,1007.33
2016-05-23T17:37:45.952Z,1007.36
2016-05-23T17:38:45.939Z,1007.35
2016-05-23T17:39:45.957Z,1007.38
2016-05-23T17:40:45.945Z,1007.37
2016-05-23T17:41:45.744Z,1007.39
2016-05-23T17:42:45.746Z,1007.42
2016-05-23T17:43:45.952Z,1007.41
2016-05-23T17:44:45.940Z,1007.43
2016-05-23T17:45:45.740Z,1007.43
2016-05-23T17:46:45.945Z,1007.45
2016-05-23T17:47:45.948Z,1007.49
2016-05-23T17:48:45.951Z,1007.47
2016-05-23T17:49:45.937Z,1007.45
2016-05-23T17:50:45.940Z,1007.46
2016-05-23T17:51:45.740Z,1007.48
2016-05-23T17:52:45.961Z,1007.47
2016-05-23T17:53:45.948Z,1007.49
2016-05-23T17:54:45.950Z,1007.46
2016-05-23T17:55:45.954Z,1007.51
2016-05-23T17:56:45.738Z,1007.53
2016-05-23T17:57:45.944Z,1007.49
2016-05-23T17:58:45.947Z,1007.58
2016-05-23T17:59:45.730Z,1007.55
2016-05-23T18:00:45.733Z,1007.55
2016-05-23T18:01:45.735Z,1007.58
2016-05-23T18:02:45.738Z,1007.58
2016-05-23T18:03:45.741Z,1007.56
2016-05-23T18:04:45.728Z,1007.57
2016-05-23T18:05:45.730Z,1007.52
2016-05-23T18:06:45.936Z,1007.54
2016-05-23T18:07:45.939Z,1007.52
2016-05-23T18:08:45.941Z,1007.59
2016-05-23T18:09:45.944Z,1007.57
2016-05-23T18:10:45.743Z,1007.59
2016-05-23T18:11:45.935Z,1007.58
2016-05-23T18:12:45.734Z,1007.6
2016-05-23T18:13:45.940Z,1007.6
2016-05-23T18:14:45.943Z,1007.61
2016-05-23T18:15:45.726Z,1007.62
2016-05-23T18:16:45.728Z,1007.59
2016-05-23T18:17:45.731Z,1007.61
2016-05-23T18:18:45.735Z,1007.64
2016-05-23T18:19:45.940Z,1007.66
2016-05-23T18:20:45.943Z,1007.65
2016-05-23T18:21:45.726Z,1007.71
2016-05-23T18:22:45.932Z,1007.73
2016-05-23T18:23:45.935Z,1007.7
2016-05-23T18:24:45.734Z,1007.71
2016-05-23T18:25:45.940Z,1007.68
2016-05-23T18:26:45.928Z,1007.72
2016-05-23T18:27:45.728Z,1007.73
2016-05-23T18:28:45.933Z,1007.69
2016-05-23T18:29:45.936Z,1007.71
2016-05-23T18:30:45.939Z,1007.74
2016-05-23T18:31:45.941Z,1007.72
2016-05-23T18:32:45.725Z,1007.75
2016-05-23T18:33:45.930Z,1007.75
2016-05-23T18:34:45.933Z,1007.76
2016-05-23T18:35:45.936Z,1007.79
2016-05-23T18:36:45.736Z,1007.76
2016-05-23T18:37:45.941Z,1007.76
2016-05-23T18:38:45.725Z,1007.76
2016-05-23T18:39:45.728Z,1007.79
2016-05-23T18:40:45.934Z,1007.79
2016-05-23T18:41:45.733Z,1007.8
2016-05-23T18:42:45.736Z,1007.86
2016-05-23T18:43:45.723Z,1007.86
2016-05-23T18:44:45.726Z,1007.88
2016-05-23T18:45:45.729Z,1007.87
2016-05-23T18:46:45.715Z,1007.84
2016-05-23T18:47:45.719Z,1007.92
2016-05-23T18:48:45.924Z,1007.91
2016-05-23T18:49:45.724Z,1007.87
2016-05-23T18:50:45.929Z,1007.9
2016-05-23T18:51:45.714Z,1007.94
2016-05-23T18:52:45.809Z,1007.88
2016-05-23T18:53:45.734Z,1007.91
2016-05-23T18:54:45.925Z,1007.92
2016-05-23T18:55:45.725Z,1007.94
2016-05-23T18:56:45.712Z,1007.9
2016-05-23T18:57:45.730Z,1007.97
2016-05-23T18:58:45.717Z,1007.95
2016-05-23T18:59:45.922Z,1008.05
2016-05-23T19:00:45.722Z,1008.07
2016-05-23T19:01:45.928Z,1008.16
2016-05-23T19:02:45.915Z,1008.22
2016-05-23T19:03:45.917Z,1008.25
2016-05-23T19:04:45.936Z,1008.27
2016-05-23T19:05:45.922Z,1008.33
2016-05-23T19:06:45.926Z,1008.34
2016-05-23T19:07:45.913Z,1008.42
2016-05-23T19:08:45.916Z,1008.47
2016-05-23T19:09:45.918Z,1008.58
2016-05-23T19:10:45.921Z,1008.69
2016-05-23T19:11:45.907Z,1008.78
2016-05-23T19:12:45.707Z,1008.78
2016-05-23T19:13:45.727Z,1008.86
2016-05-23T19:14:45.916Z,1008.92
2016-05-23T19:15:45.715Z,1008.93
2016-05-23T19:16:45.921Z,1008.92
2016-05-23T19:17:45.909Z,1008.93
2016-05-23T19:18:45.708Z,1008.85
2016-05-23T19:19:45.914Z,1008.88
2016-05-23T19:20:45.917Z,1008.88
2016-05-23T19:21:45.920Z,1008.91
2016-05-23T19:22:45.906Z,1008.92
2016-05-23T19:23:45.909Z,1008.92
2016-05-23T19:24:45.709Z,1008.97
2016-05-23T19:25:45.695Z,1008.95
2016-05-23T19:26:45.698Z,1008.93
2016-05-23T19:27:45.904Z,1008.92
2016-05-23T19:28:45.907Z,1008.83
2016-05-23T19:29:45.909Z,1008.74
2016-05-23T19:30:45.912Z,1008.68
2016-05-23T19:31:45.696Z,1008.68
2016-05-23T19:32:45.700Z,1008.65
2016-05-23T19:33:45.905Z,1008.63
2016-05-23T19:34:45.908Z,1008.57
2016-05-23T19:35:45.708Z,1008.61
2016-05-23T19:36:45.897Z,1008.58
2016-05-23T19:37:45.899Z,1008.59
2016-05-23T19:38:45.902Z,1008.56
2016-05-23T19:39:45.889Z,1008.53
2016-05-23T19:40:45.689Z,1008.6
2016-05-23T19:41:45.895Z,1008.55
2016-05-23T19:42:45.897Z,1008.55
2016-05-23T19:43:45.900Z,1008.54
2016-05-23T19:44:45.684Z,1008.58
2016-05-23T19:45:45.687Z,1008.58
2016-05-23T19:46:45.690Z,1008.62
2016-05-23T19:47:45.677Z,1008.7
2016-05-23T19:48:45.695Z,1008.64
2016-05-23T19:49:45.885Z,1008.63
2016-05-23T19:50:45.684Z,1008.65
2016-05-23T19:51:45.688Z,1008.68
2016-05-23T19:52:45.893Z,1008.74
2016-05-23T19:53:45.881Z,1008.71
2016-05-23T19:54:45.883Z,1008.64
2016-05-23T19:55:45.886Z,1008.63
2016-05-23T19:56:45.684Z,1008.65
2016-05-23T19:57:45.672Z,1008.68
2016-05-23T19:58:45.676Z,1008.7
2016-05-23T19:59:45.772Z,1008.7
2016-05-23T20:00:45.884Z,1008.78
2016-05-23T20:01:45.683Z,1008.82
2016-05-23T20:02:45.873Z,1008.82
2016-05-23T20:03:45.875Z,1008.86
2016-05-23T20:04:45.879Z,1008.96
2016-05-23T20:05:45.881Z,1008.98
2016-05-23T20:06:45.666Z,1009
2016-05-23T20:07:45.871Z,1009.01
2016-05-23T20:08:45.874Z,1009.04
2016-05-23T20:09:45.877Z,1009.05
2016-05-23T20:10:45.677Z,1009.06
2016-05-23T20:11:45.663Z,1009.09
2016-05-23T20:12:45.869Z,1009.09
2016-05-23T20:13:45.871Z,1009.1
2016-05-23T20:14:45.968Z,1009.11
2016-05-23T20:15:45.674Z,1009.04
2016-05-23T20:16:45.661Z,1009.07
2016-05-23T20:17:45.664Z,1009.09
2016-05-23T20:18:45.666Z,1009.11
2016-05-23T20:19:45.654Z,1009.12
2016-05-23T20:20:45.656Z,1009.14
2016-05-23T20:21:45.862Z,1009.17
2016-05-23T20:22:45.864Z,1009.13
2016-05-23T20:23:45.852Z,1009.1
2016-05-23T20:24:45.651Z,1009.13
2016-05-23T20:25:45.857Z,1009.16
2016-05-23T20:26:45.656Z,1009.12
2016-05-23T20:27:45.848Z,1009.09
2016-05-23T20:28:45.850Z,1009.09
2016-05-23T20:29:45.883Z,1009.03
2016-05-23T20:30:45.651Z,1009.03
2016-05-23T20:31:45.858Z,1009.06
2016-05-23T20:32:45.844Z,1009.03
2016-05-23T20:33:45.847Z,1009.04
2016-05-23T20:34:45.647Z,1008.91
2016-05-23T20:35:45.837Z,1008.98
2016-05-23T20:36:45.839Z,1008.93
2016-05-23T20:37:45.842Z,1008.96
2016-05-23T20:38:45.642Z,1008.98
2016-05-23T20:39:45.847Z,1008.96
2016-05-23T20:40:45.835Z,1008.92
2016-05-23T20:41:45.838Z,1008.96
2016-05-23T20:42:45.638Z,1008.98
2016-05-23T20:43:45.827Z,1008.96
2016-05-23T20:44:45.643Z,1008.95
2016-05-23T20:45:45.629Z,1008.94
2016-05-23T20:46:45.633Z,1008.99
2016-05-23T20:47:45.634Z,1009
2016-05-23T20:48:45.841Z,1008.99
2016-05-23T20:49:45.828Z,1009.01
2016-05-23T20:50:45.830Z,1008.98
2016-05-23T20:51:45.614Z,1008.98
2016-05-23T20:52:45.820Z,1009.01
2016-05-23T20:53:45.620Z,1008.98
2016-05-23T20:54:45.623Z,1008.97
2016-05-23T20:55:45.626Z,1008.99
2016-05-23T20:56:45.815Z,1009.02
2016-05-23T20:57:45.818Z,1009.01
2016-05-23T20:58:45.820Z,1009.06
2016-05-23T20:59:45.964Z,1009.01
2016-05-23T21:00:45.826Z,1009.1
2016-05-23T21:01:45.610Z,1009.09
2016-05-23T21:02:45.816Z,1009.12
2016-05-23T21:03:45.819Z,1009.08
2016-05-23T21:04:45.822Z,1009.08
2016-05-23T21:05:45.809Z,1009.09
2016-05-23T21:06:45.608Z,1009.15
2016-05-23T21:07:45.595Z,1009.16
2016-05-23T21:08:45.800Z,1009.25
2016-05-23T21:09:45.600Z,1009.19
2016-05-23T21:10:45.602Z,1009.23
2016-05-23T21:11:45.591Z,1009.25
2016-05-23T21:12:45.797Z,1009.24
2016-05-23T21:13:45.596Z,1009.29
2016-05-23T21:14:45.801Z,1009.29
2016-05-23T21:15:45.804Z,1009.32
2016-05-23T21:16:45.790Z,1009.31
2016-05-23T21:17:45.793Z,1009.3
2016-05-23T21:18:45.781Z,1009.32
2016-05-23T21:19:45.783Z,1009.34
2016-05-23T21:20:45.583Z,1009.32
2016-05-23T21:21:45.788Z,1009.31
2016-05-23T21:22:45.791Z,1009.31
2016-05-23T21:23:45.779Z,1009.32
2016-05-23T21:24:45.797Z,1009.27
2016-05-23T21:25:45.784Z,1009.28
2016-05-23T21:26:45.787Z,1009.22
2016-05-23T21:27:45.773Z,1009.18
2016-05-23T21:28:45.573Z,1009.23
2016-05-23T21:29:45.576Z,1009.19
2016-05-23T21:30:45.767Z,1009.19
2016-05-23T21:31:45.565Z,1009.12
2016-05-23T21:32:45.772Z,1009.15
2016-05-23T21:33:45.774Z,1009.12
2016-05-23T21:34:45.778Z,1009.12
2016-05-23T21:35:45.561Z,1009.14
2016-05-23T21:36:45.564Z,1009.13
2016-05-23T21:37:45.769Z,1009.11
2016-05-23T21:38:45.756Z,1009.11
2016-05-23T21:39:45.758Z,1009.1
2016-05-23T21:40:45.761Z,1008.97
2016-05-23T21:41:45.562Z,1009.03
2016-05-23T21:42:45.767Z,1009.06
2016-05-23T21:43:45.755Z,1009
2016-05-23T21:44:45.554Z,1009.04
2016-05-23T21:45:45.541Z,1009.07
2016-05-23T21:46:45.543Z,1009.09
2016-05-23T21:47:45.750Z,1009.12
2016-05-23T21:48:45.533Z,1009.14
2016-05-23T21:49:45.536Z,1009.18
2016-05-23T21:50:45.741Z,1009.27
2016-05-23T21:51:45.744Z,1009.24
2016-05-23T21:52:45.544Z,1009.31
2016-05-23T21:53:45.531Z,1009.3
2016-05-23T21:54:45.737Z,1009.28
2016-05-23T21:55:45.537Z,1009.32
2016-05-23T21:56:45.523Z,1009.34
2016-05-23T21:57:45.526Z,1009.33
2016-05-23T21:58:45.529Z,1009.37
2016-05-23T21:59:45.720Z,1009.39
2016-05-23T22:00:45.518Z,1009.41
2016-05-23T22:01:45.521Z,1009.46
2016-05-23T22:02:45.523Z,1009.51
2016-05-23T22:03:45.511Z,1009.52
2016-05-23T22:04:45.717Z,1009.61
2016-05-23T22:05:45.720Z,1009.53
2016-05-23T22:06:45.723Z,1009.6
2016-05-23T22:07:45.709Z,1009.65
2016-05-23T22:08:45.712Z,1009.66
2016-05-23T22:09:45.714Z,1009.73
2016-05-23T22:10:45.499Z,1009.72
2016-05-23T22:11:45.501Z,1009.75
2016-05-23T22:12:45.708Z,1009.76
2016-05-23T22:13:45.710Z,1009.73
2016-05-23T22:14:45.697Z,1009.72
2016-05-23T22:15:45.699Z,1009.77
2016-05-23T22:16:45.703Z,1009.78
2016-05-23T22:17:45.502Z,1009.75
2016-05-23T22:18:45.692Z,1009.76
2016-05-23T22:19:45.491Z,1009.76
2016-05-23T22:20:45.510Z,1009.75
2016-05-23T22:21:45.497Z,1009.81
2016-05-23T22:22:45.687Z,1009.79
2016-05-23T22:23:45.487Z,1009.78
2016-05-23T22:24:45.490Z,1009.82
2016-05-23T22:25:45.695Z,1009.74
2016-05-23T22:26:45.698Z,1009.76
2016-05-23T22:27:45.482Z,1009.78
2016-05-23T22:28:45.485Z,1009.77
2016-05-23T22:29:45.472Z,1009.76
2016-05-23T22:30:45.678Z,1009.75
2016-05-23T22:31:45.681Z,1009.78
2016-05-23T22:32:45.667Z,1009.82
2016-05-23T22:33:45.670Z,1009.82
2016-05-23T22:34:45.673Z,1009.83
2016-05-23T22:35:45.473Z,1009.82
2016-05-23T22:36:45.475Z,1009.88
2016-05-23T22:37:45.461Z,1009.86
2016-05-23T22:38:45.667Z,1009.8
2016-05-23T22:39:45.452Z,1009.81
2016-05-23T22:40:45.657Z,1009.79
2016-05-23T22:41:45.661Z,1009.83
2016-05-23T22:42:45.444Z,1009.85
2016-05-23T22:43:45.650Z,1009.85
2016-05-23T22:44:45.653Z,1009.84
2016-05-23T22:45:45.639Z,1009.85
2016-05-23T22:46:45.642Z,1009.85
2016-05-23T22:47:45.442Z,1009.88
2016-05-23T22:48:45.647Z,1009.92
2016-05-23T22:49:45.432Z,1009.92
2016-05-23T22:50:45.638Z,1009.9
2016-05-23T22:51:45.437Z,1009.91
2016-05-23T22:52:45.643Z,1009.89
2016-05-23T22:53:45.427Z,1009.91
2016-05-23T22:54:45.648Z,1009.87
2016-05-23T22:55:45.635Z,1009.87
2016-05-23T22:56:45.623Z,1009.87
2016-05-23T22:57:45.626Z,1009.84
2016-05-23T22:58:45.629Z,1009.9
2016-05-23T22:59:45.412Z,1009.93
2016-05-23T23:00:45.618Z,1009.97
2016-05-23T23:01:45.417Z,1009.95
2016-05-23T23:02:45.623Z,1009.96
2016-05-23T23:03:45.609Z,1009.98
2016-05-23T23:04:45.410Z,1010.02
2016-05-23T23:05:45.615Z,1010.01
2016-05-23T23:06:45.603Z,1010.01
2016-05-23T23:07:45.605Z,1010.02
2016-05-23T23:08:45.609Z,1010.01
2016-05-23T23:09:45.391Z,1010.06
2016-05-23T23:10:45.394Z,1010.04
2016-05-23T23:11:45.600Z,1010.06
2016-05-23T23:12:45.603Z,1010.05
2016-05-23T23:13:45.386Z,1010.04
2016-05-23T23:14:45.390Z,1010.03
2016-05-23T23:15:45.392Z,1010.02
2016-05-23T23:16:45.583Z,1010.01
2016-05-23T23:17:45.585Z,1010.02
2016-05-23T23:18:45.588Z,1010.02
2016-05-23T23:19:45.591Z,1009.99
2016-05-23T23:20:45.374Z,1009.99
2016-05-23T23:21:45.393Z,1009.96
2016-05-23T23:22:45.583Z,1009.96
2016-05-23T23:23:45.571Z,1009.93
2016-05-23T23:24:45.385Z,1009.93
2016-05-23T23:25:45.576Z,1009.86
2016-05-23T23:26:45.578Z,1009.86
2016-05-23T23:27:45.377Z,1009.88
2016-05-23T23:28:45.365Z,1009.89
2016-05-23T23:29:45.570Z,1009.89
2016-05-23T23:30:45.557Z,1009.85
2016-05-23T23:31:45.560Z,1009.88
2016-05-23T23:32:45.562Z,1009.88
2016-05-23T23:33:45.566Z,1009.9
2016-05-23T23:34:45.553Z,1009.92
2016-05-23T23:35:45.556Z,1009.93
2016-05-23T23:36:45.339Z,1009.9
2016-05-23T23:37:45.342Z,1009.89
2016-05-23T23:38:45.547Z,1009.88
2016-05-23T23:39:45.347Z,1009.92
2016-05-23T23:40:45.537Z,1009.92
2016-05-23T23:41:45.337Z,1009.92
2016-05-23T23:42:45.528Z,1009.91
2016-05-23T23:43:45.530Z,1009.91
2016-05-23T23:44:45.627Z,1009.94
2016-05-23T23:45:45.520Z,1009.95
2016-05-23T23:46:45.538Z,1009.99
2016-05-23T23:47:45.525Z,1010
2016-05-23T23:48:45.528Z,1010.03
2016-05-23T23:49:45.515Z,1010.05
2016-05-23T23:50:45.314Z,1010.08
2016-05-23T23:51:45.317Z,1010.06
2016-05-23T23:52:45.305Z,1010.12
2016-05-23T23:53:45.510Z,1010.12
2016-05-23T23:54:45.513Z,1010.13
2016-05-23T23:55:45.516Z,1010.11
2016-05-23T23:56:45.502Z,1010.16
2016-05-23T23:57:45.505Z,1010.11
2016-05-23T23:58:45.508Z,1010.11
2016-05-23T23:59:45.292Z,1010.13
